Time;durP1;ratioP1;P1;durP2;ratioP2;P2;SDS_P1;SDS_P2;PMS_P1;PMS_P2;Temp;Humidity;BMP_temperature;BMP_pressure;BME280_temperature;BME280_humidity;BME280_pressure;Samples;Min_cycle;Max_cycle;Signal;HPM_P1;HPM_P2
2023/04/06 00:00:32;;;;;;;44.58;19.67;;;;;;;-0.70;100.00;101443.00;5092808;28;20338;-76
2023/04/06 00:02:57;;;;;;;40.72;17.98;;;;;;;-0.68;100.00;101446.41;5113045;27;20506;-75
2023/04/06 00:05:23;;;;;;;37.55;18.08;;;;;;;-0.69;100.00;101449.09;5109688;28;20024;-76
2023/04/06 00:07:49;;;;;;;34.80;17.50;;;;;;;-0.73;100.00;101447.50;5106555;28;20027;-78
2023/04/06 00:10:15;;;;;;;;;;;;;;;-0.73;100.00;101453.59;5092572;28;20024;-77
2023/04/06 00:12:41;;;;;;;39.03;18.75;;;;;;;-0.82;100.00;101435.72;5106541;28;19912;-77
2023/04/06 00:15:07;;;;;;;36.47;18.70;;;;;;;-0.89;100.00;101435.16;5107956;28;20166;-78
2023/04/06 00:17:32;;;;;;;34.97;17.75;;;;;;;-0.96;100.00;101428.50;5108976;28;20095;-77
2023/04/06 00:19:57;;;;;;;36.05;18.48;;;;;;;-0.95;100.00;101440.66;5087926;28;20408;-77
2023/04/06 00:22:23;;;;;;;36.83;17.25;;;;;;;-0.93;100.00;101438.81;5107811;28;20016;-76
2023/04/06 00:24:48;;;;;;;39.63;18.67;;;;;;;-0.98;100.00;101439.97;5105838;28;20039;-78
2023/04/06 00:27:14;;;;;;;42.72;19.42;;;;;;;-0.94;100.00;101458.06;5106038;28;20042;-78
2023/04/06 00:29:40;;;;;;;39.38;18.73;;;;;;;-0.97;100.00;101458.22;5104809;28;20114;-77
2023/04/06 00:32:05;;;;;;;42.83;19.30;;;;;;;-1.03;100.00;101458.53;5106086;28;20019;-77
2023/04/06 00:34:31;;;;;;;35.53;17.63;;;;;;;-1.06;100.00;101454.25;5088869;28;20518;-78
2023/04/06 00:36:56;;;;;;;36.97;17.05;;;;;;;-1.13;100.00;101447.59;5104219;28;20285;-74
2023/04/06 00:39:22;;;;;;;35.08;17.00;;;;;;;-1.12;100.00;101438.84;5105175;28;20046;-75
2023/04/06 00:41:52;;;;;;;43.15;19.02;;;;;;;-1.14;100.00;101437.19;5104055;28;20059;-75
2023/04/06 00:44:18;;;;;;;35.13;17.33;;;;;;;-1.14;100.00;101439.81;5104955;28;20036;-76
2023/04/06 00:46:44;;;;;;;36.05;16.95;;;;;;;-1.18;100.00;101438.25;5100546;28;20031;-77
2023/04/06 00:49:11;;;;;;;33.95;17.23;;;;;;;-1.22;100.00;101437.53;5089227;28;20115;-77
2023/04/06 00:51:36;;;;;;;43.47;19.08;;;;;;;-1.18;100.00;101439.09;5108339;28;20131;-77
2023/04/06 00:54:02;;;;;;;43.28;17.60;;;;;;;-1.12;100.00;101449.31;5088082;28;20055;-75
2023/04/06 00:56:31;;;;;;;39.95;18.13;;;;;;;-1.14;100.00;101460.78;5105489;28;20092;-78
2023/04/06 00:58:56;;;;;;;36.28;17.65;;;;;;;-1.27;100.00;101456.06;5103550;28;20034;-77
2023/04/06 01:01:23;;;;;;;37.95;18.42;;;;;;;-1.31;100.00;101446.69;5086052;28;20036;-76
2023/04/06 01:03:52;;;;;;;40.17;19.17;;;;;;;-1.30;100.00;101455.38;5085912;28;20024;-77
2023/04/06 01:06:18;;;;;;;40.05;17.45;;;;;;;-1.30;100.00;101452.75;5089868;28;20430;-76
2023/04/06 01:08:51;;;;;;;34.55;16.33;;;;;;;-1.35;100.00;101454.75;5085900;28;20043;-78
2023/04/06 01:11:20;;;;;;;34.50;17.33;;;;;;;-1.45;100.00;101440.34;5103665;28;20028;-78
2023/04/06 01:13:47;;;;;;;32.45;15.48;;;;;;;-1.46;100.00;101423.78;5102188;28;20027;-75
2023/04/06 01:16:36;;;;;;;41.80;18.35;;;;;;;-1.48;100.00;101402.03;5102298;28;20454;-78
2023/04/06 01:19:10;;;;;;;43.08;18.50;;;;;;;-1.45;100.00;101407.16;5103196;28;20080;-75
2023/04/06 01:21:37;;;;;;;38.72;19.63;;;;;;;-1.48;100.00;101404.66;5085735;28;20038;-77
2023/04/06 01:24:15;;;;;;;34.28;17.70;;;;;;;-1.54;100.00;101397.09;5083378;28;20024;-77
2023/04/06 01:27:07;;;;;;;45.80;19.00;;;;;;;-1.52;100.00;101400.50;5100273;28;20035;-78
2023/04/06 01:30:02;;;;;;;41.80;18.67;;;;;;;-1.52;100.00;101413.59;5102511;28;20535;-76
2023/04/06 01:32:50;;;;;;;40.28;18.80;;;;;;;-1.67;100.00;101409.88;5102717;28;20072;-77
2023/04/06 01:35:22;;;;;;;37.40;18.48;;;;;;;-1.70;100.00;101410.84;5106085;28;20400;-74
2023/04/06 01:38:02;;;;;;;39.53;20.27;;;;;;;-1.67;100.00;101406.41;5088229;28;20505;-75
2023/04/06 01:40:31;;;;;;;42.13;20.13;;;;;;;-1.73;100.00;101404.91;5102269;28;20157;-77
2023/04/06 01:42:57;;;;;;;42.88;19.83;;;;;;;-1.74;100.00;101393.56;5101758;28;20119;-74
2023/04/06 01:45:31;;;;;;;49.35;20.27;;;;;;;-1.73;100.00;101392.69;5085758;28;20031;-75
2023/04/06 01:48:11;;;;;;;47.38;22.55;;;;;;;-1.66;100.00;101418.56;5087400;28;20559;-77
2023/04/06 01:50:36;;;;;;;43.60;20.25;;;;;;;-1.64;100.00;101425.47;5104873;27;20234;-78
2023/04/06 01:53:02;;;;;;;41.20;20.42;;;;;;;-1.75;100.00;101418.06;5084869;28;20070;-75
2023/04/06 01:55:28;;;;;;;43.60;20.48;;;;;;;-1.82;100.00;101416.63;5102595;28;20080;-77
2023/04/06 01:58:16;;;;;;;48.55;19.88;;;;;;;-1.89;100.00;101404.75;5085715;28;20419;-75
2023/04/06 02:00:42;;;;;;;44.50;20.13;;;;;;;-1.86;100.00;101404.59;5102485;28;20036;-75
2023/04/06 02:03:08;;;;;;;46.60;21.02;;;;;;;-1.83;100.00;101409.69;5081984;28;20036;-77
2023/04/06 02:05:37;;;;;;;42.40;19.13;;;;;;;-1.82;100.00;101400.09;5103311;28;20520;-77
2023/04/06 02:08:05;;;;;;;43.78;20.02;;;;;;;-1.87;100.00;101395.06;5101765;28;20400;-76
2023/04/06 02:10:34;;;;;;;45.97;19.58;;;;;;;-1.89;100.00;101389.03;5084807;28;20363;-77
2023/04/06 02:13:06;;;;;;;51.55;22.08;;;;;;;-1.87;100.00;101388.94;5086102;28;20524;-76
2023/04/06 02:15:32;;;;;;;44.88;20.95;;;;;;;-1.96;100.00;101366.66;5085277;28;20063;-74
2023/04/06 02:17:59;;;;;;;39.28;18.73;;;;;;;-1.93;100.00;101377.84;5104913;28;20039;-77
2023/04/06 02:20:24;;;;;;;39.78;19.35;;;;;;;-1.98;100.00;101374.56;5105853;28;20034;-77
2023/04/06 02:22:50;;;;;;;42.95;18.17;;;;;;;-2.01;100.00;101363.41;5104913;28;20032;-76
2023/04/06 02:25:15;;;;;;;44.67;20.55;;;;;;;-1.94;100.00;101367.44;5090525;28;20035;-77
2023/04/06 02:27:41;;;;;;;53.53;23.10;;;;;;;-1.81;100.00;101381.69;5104729;28;20492;-77
2023/04/06 02:30:07;;;;;;;51.15;25.42;;;;;;;-1.69;100.00;101396.00;5088165;28;20087;-74
2023/04/06 02:32:32;;;;;;;;;;;;;;;-1.62;100.00;101402.66;5089343;28;20071;-76
2023/04/06 02:34:58;;;;;;;53.00;25.10;;;;;;;-1.66;100.00;101408.09;5104267;28;19939;-78
2023/04/06 02:37:24;;;;;;;;;;;;;;;-1.58;100.00;101419.09;5105999;28;20066;-76
2023/04/06 02:39:50;;;;;;;61.35;25.25;;;;;;;-1.61;100.00;101420.09;5103680;28;20407;-78
2023/04/06 02:42:16;;;;;;;56.55;25.42;;;;;;;-1.66;100.00;101400.25;5106050;28;20394;-77
2023/04/06 02:44:43;;;;;;;60.35;28.25;;;;;;;-1.60;100.00;101415.69;5105253;28;20462;-76
2023/04/06 02:47:09;;;;;;;73.05;29.92;;;;;;;-1.52;100.00;101426.69;5091580;28;20450;-76
2023/04/06 02:49:35;;;;;;;78.10;30.48;;;;;;;-1.47;100.00;101437.81;5087701;28;20118;-75
2023/04/06 02:52:01;;;;;;;68.07;30.48;;;;;;;-1.47;100.00;101436.97;5104509;28;20043;-77
2023/04/06 02:54:31;;;;;;;69.10;28.98;;;;;;;-1.50;100.00;101427.44;5105149;28;20048;-76
2023/04/06 02:56:57;;;;;;;65.63;29.58;;;;;;;-1.54;100.00;101428.53;5087377;28;20043;-75
2023/04/06 02:59:31;;;;;;;64.88;30.48;;;;;;;-1.53;100.00;101431.06;5091974;28;20024;-77
2023/04/06 03:02:06;;;;;;;;;;;;;;;-1.48;100.00;101436.09;5105742;28;20032;-74
2023/04/06 03:04:32;;;;;;;63.13;28.42;;;;;;;-1.54;100.00;101425.91;5108180;28;20127;-76
2023/04/06 03:06:59;;;;;;;71.25;29.52;;;;;;;-1.50;100.00;101420.47;5104167;28;20032;-77
2023/04/06 03:09:34;;;;;;;67.22;29.50;;;;;;;-1.43;100.00;101431.50;5091990;28;20049;-76
2023/04/06 03:12:00;;;;;;;77.75;32.63;;;;;;;-1.36;100.00;101434.69;5104009;28;20038;-77
2023/04/06 03:14:30;;;;;;;74.13;32.42;;;;;;;-1.32;100.00;101442.34;5104893;28;20032;-74
2023/04/06 03:16:55;;;;;;;74.75;33.08;;;;;;;-1.28;100.00;101438.69;5103730;28;20063;-76
2023/04/06 03:19:22;;;;;;;86.85;35.28;;;;;;;-1.33;100.00;101445.06;5107227;28;20559;-73
2023/04/06 03:21:48;;;;;;;;;;;;;;;-1.28;100.00;101438.69;5105187;28;20031;-76
2023/04/06 03:24:15;;;;;;;71.82;31.17;;;;;;;-1.35;100.00;101437.25;5105052;28;20356;-78
2023/04/06 03:26:42;;;;;;;89.15;35.80;;;;;;;-1.26;100.00;101430.75;5103197;28;20079;-74
2023/04/06 03:29:07;;;;;;;84.68;34.97;;;;;;;-1.32;100.00;101426.63;5100785;28;20071;-77
2023/04/06 03:31:33;;;;;;;74.35;33.58;;;;;;;-1.29;100.00;101430.88;5104671;28;20040;-76
2023/04/06 03:34:05;;;;;;;88.15;35.97;;;;;;;-1.24;100.00;101436.78;5104581;28;20038;-77
2023/04/06 03:36:34;;;;;;;79.07;33.65;;;;;;;-1.25;100.00;101436.84;5105975;28;20085;-77
2023/04/06 03:39:02;;;;;;;75.57;34.42;;;;;;;-1.27;100.00;101445.59;5086744;28;20085;-74
2023/04/06 03:41:30;;;;;;;82.88;35.03;;;;;;;-1.31;100.00;101443.22;5104914;28;20066;-76
2023/04/06 03:44:14;;;;;;;82.10;33.60;;;;;;;-1.27;100.00;101456.06;5086041;28;20250;-77
2023/04/06 03:46:40;;;;;;;74.90;31.77;;;;;;;-1.28;100.00;101450.94;5089889;28;20032;-78
2023/04/06 03:49:06;;;;;;;69.70;31.88;;;;;;;-1.38;100.00;101441.75;5107470;28;20023;-73
2023/04/06 03:51:32;;;;;;;75.20;32.53;;;;;;;-1.40;100.00;101443.63;5107884;28;20027;-75
2023/04/06 03:53:58;;;;;;;69.57;32.75;;;;;;;-1.49;100.00;101426.53;5104417;28;20046;-77
2023/04/06 03:56:23;;;;;;;74.32;31.38;;;;;;;-1.62;100.00;101409.66;5104575;28;20034;-77
2023/04/06 03:58:51;;;;;;;71.93;32.38;;;;;;;-1.64;100.00;101415.00;5102693;28;20515;-77
2023/04/06 04:01:19;;;;;;;69.28;30.67;;;;;;;-1.61;100.00;101414.00;5104622;28;20030;-77
2023/04/06 04:03:45;;;;;;;68.15;30.45;;;;;;;-1.62;100.00;101420.13;5102688;28;20035;-76
2023/04/06 04:06:13;;;;;;;71.82;29.70;;;;;;;-1.66;100.00;101413.34;5104347;28;20077;-76
2023/04/06 04:08:40;;;;;;;71.53;32.67;;;;;;;-1.60;100.00;101411.28;5085496;28;20114;-77
2023/04/06 04:11:06;;;;;;;61.13;29.85;;;;;;;-1.58;100.00;101416.47;5105713;28;20748;-75
2023/04/06 04:13:32;;;;;;;60.85;29.50;;;;;;;-1.60;100.00;101413.91;5106971;28;20034;-75
2023/04/06 04:15:57;;;;;;;70.05;31.73;;;;;;;-1.56;100.00;101412.03;5102887;28;20032;-77
2023/04/06 04:18:24;;;;;;;72.32;30.70;;;;;;;-1.47;100.00;101427.34;5103303;28;20070;-75
2023/04/06 04:20:49;;;;;;;;;;;;;;;-1.46;100.00;101434.25;5085699;28;20084;-76
2023/04/06 04:23:15;;;;;;;77.35;30.98;;;;;;;-1.46;100.00;101422.94;5106492;28;20332;-77
2023/04/06 04:25:40;;;;;;;72.95;33.45;;;;;;;-1.42;100.00;101427.13;5102662;28;20476;-77
2023/04/06 04:28:06;;;;;;;79.82;34.83;;;;;;;-1.28;100.00;101433.44;5082560;28;20039;-76
2023/04/06 04:30:31;;;;;;;90.85;39.60;;;;;;;-1.22;100.00;101436.69;5106795;28;20118;-74
2023/04/06 04:32:57;;;;;;;79.38;35.53;;;;;;;-1.13;100.00;101446.75;5086014;28;20105;-76
2023/04/06 04:35:23;;;;;;;;;;;;;;;-1.06;100.00;101453.41;5101592;28;20035;-77
2023/04/06 04:37:49;;;;;;;81.05;34.47;;;;;;;-1.11;100.00;101451.00;5089232;28;19915;-77
2023/04/06 04:40:15;;;;;;;79.15;35.00;;;;;;;-1.12;100.00;101443.22;5103314;28;20024;-77
2023/04/06 04:42:55;;;;;;;73.38;33.47;;;;;;;-1.05;100.00;101452.50;5087190;28;20028;-77
2023/04/06 04:45:27;;;;;;;89.38;36.08;;;;;;;-1.11;100.00;101458.88;5086030;28;20159;-77
2023/04/06 04:47:53;;;;;;;81.00;35.22;;;;;;;-1.07;100.00;101451.72;5085079;28;20199;-76
2023/04/06 04:50:20;;;;;;;75.85;33.53;;;;;;;-1.10;100.00;101447.47;5102666;28;20042;-76
2023/04/06 04:52:48;;;;;;;76.22;32.75;;;;;;;-1.10;100.00;101441.34;5103304;28;20039;-76
2023/04/06 04:55:21;;;;;;;72.68;31.48;;;;;;;-0.99;100.00;101453.97;5103146;28;20034;-77
2023/04/06 04:57:51;;;;;;;69.13;28.15;;;;;;;-0.94;100.00;101444.97;5101547;28;20078;-77
2023/04/06 05:00:21;;;;;;;64.47;28.90;;;;;;;-0.82;100.00;101446.19;5086451;28;20065;-77
2023/04/06 05:02:47;;;;;;;;;;;;;;;-0.70;100.00;101458.72;5102185;28;20042;-76
2023/04/06 05:05:16;;;;;;;62.13;27.42;;;;;;;-0.72;100.00;101457.94;5105807;28;20015;-74
2023/04/06 05:07:42;;;;;;;63.53;28.27;;;;;;;-0.63;100.00;101472.41;5085007;28;20110;-76
2023/04/06 05:10:12;;;;;;;60.08;27.70;;;;;;;-0.42;100.00;101467.91;5082892;28;20484;-75
2023/04/06 05:12:48;;;;;;;;;;;;;;;-0.27;100.00;101479.41;5086810;28;20035;-76
2023/04/06 05:15:14;;;;;;;64.97;28.70;;;;;;;-0.35;100.00;101468.44;5085995;28;19939;-78
2023/04/06 05:17:40;;;;;;;66.80;28.85;;;;;;;-0.38;100.00;101465.97;5103310;28;20034;-77
2023/04/06 05:20:08;;;;;;;63.35;29.65;;;;;;;-0.39;100.00;101464.28;5085591;28;20038;-77
2023/04/06 05:22:42;;;;;;;63.78;28.20;;;;;;;-0.43;100.00;101456.53;5103040;28;20027;-75
2023/04/06 05:25:09;;;;;;;63.50;27.73;;;;;;;-0.36;100.00;101456.25;5099001;28;20024;-76
2023/04/06 05:27:35;;;;;;;55.85;26.42;;;;;;;-0.34;100.00;101454.41;5088459;28;20034;-77
2023/04/06 05:30:06;;;;;;;66.90;26.65;;;;;;;-0.28;100.00;101456.72;5093977;28;20031;-77
2023/04/06 05:32:37;;;;;;;51.15;24.02;;;;;;;-0.24;100.00;101458.25;5101785;28;20047;-75
2023/04/06 05:35:03;;;;;;;53.17;25.65;;;;;;;-0.18;100.00;101449.25;5085681;28;20028;-76
2023/04/06 05:37:29;;;;;;;48.88;22.67;;;;;;;-0.07;100.00;101447.78;5086345;28;20107;-78
2023/04/06 05:39:55;;;;;;;51.92;24.92;;;;;;;-0.04;100.00;101439.75;5084728;28;20110;-77
2023/04/06 05:42:22;;;;;;;44.85;23.00;;;;;;;0.03;100.00;101445.56;5083009;28;20019;-74
2023/04/06 05:44:57;;;;;;;50.38;24.30;;;;;;;0.15;100.00;101444.91;5101450;28;20031;-78
2023/04/06 05:47:23;;;;;;;51.45;23.45;;;;;;;0.29;100.00;101441.59;5103212;28;20464;-78
2023/04/06 05:49:55;;;;;;;48.55;24.15;;;;;;;0.33;100.00;101437.88;5085307;28;20507;-76
2023/04/06 05:52:31;;;;;;;54.22;23.83;;;;;;;0.41;100.00;101438.31;5102513;28;20034;-77
2023/04/06 05:54:56;;;;;;;54.05;24.25;;;;;;;0.55;100.00;101442.00;5085494;28;20528;-76
2023/04/06 05:57:23;;;;;;;49.05;24.38;;;;;;;0.64;100.00;101438.91;5099975;28;20023;-76
2023/04/06 05:59:49;;;;;;;52.92;26.15;;;;;;;1.20;100.00;101463.06;5099408;28;20036;-76
2023/04/06 06:02:15;;;;;;;47.55;21.48;;;;;;;1.93;100.00;101479.09;5101354;28;20465;-76
2023/04/06 06:04:44;;;;;;;44.72;21.63;;;;;;;2.38;100.00;101466.78;5083410;28;20032;-76
2023/04/06 06:07:09;;;;;;;38.30;20.85;;;;;;;3.48;100.00;101466.13;5080590;28;20020;-76
2023/04/06 06:09:43;;;;;;;32.83;17.83;;;;;;;4.43;100.00;101457.16;5084089;28;20165;-76
2023/04/06 06:12:35;;;;;;;39.95;18.65;;;;;;;5.05;100.00;101412.19;5101556;28;20491;-77
2023/04/06 06:15:00;;;;;;;34.63;17.88;;;;;;;5.66;100.00;101345.09;5096268;28;20067;-77
2023/04/06 06:17:27;;;;;;;28.35;17.20;;;;;;;4.52;100.00;101170.94;5086785;28;20098;-76
2023/04/06 06:19:53;;;;;;;36.23;16.50;;;;;;;4.74;100.00;101074.97;5099374;28;20047;-77
2023/04/06 06:22:18;;;;;;;39.22;18.67;;;;;;;4.48;100.00;100984.41;5084152;28;20070;-78
2023/04/06 06:24:45;;;;;;;33.13;17.63;;;;;;;4.94;100.00;100959.69;5084263;28;20126;-76
2023/04/06 06:27:12;;;;;;;35.95;18.35;;;;;;;4.19;100.00;100844.75;5103658;28;20019;-77
2023/04/06 06:29:37;;;;;;;38.25;19.55;;;;;;;4.00;100.00;100831.25;5083333;28;20097;-76
2023/04/06 06:32:03;;;;;;;34.70;17.48;;;;;;;4.62;100.00;100825.50;5087197;28;20118;-76
2023/04/06 06:34:29;;;;;;;32.17;19.10;;;;;;;3.93;100.00;100719.97;5084407;28;20032;-76
2023/04/06 06:36:57;;;;;;;35.78;19.85;;;;;;;4.35;100.00;100782.75;5103553;28;20031;-76
2023/04/06 06:39:23;;;;;;;37.05;17.67;;;;;;;4.84;100.00;100799.97;5104279;28;20034;-76
2023/04/06 06:41:49;;;;;;;35.25;17.83;;;;;;;4.70;100.00;100665.34;5104904;28;20031;-76
2023/04/06 06:44:16;;;;;;;35.15;17.45;;;;;;;4.77;100.00;100663.88;5104885;28;20476;-77
2023/04/06 06:46:41;;;;;;;42.05;19.35;;;;;;;4.87;100.00;100635.72;5104309;28;20578;-77
2023/04/06 06:49:07;;;;;;;48.07;22.40;;;;;;;4.13;100.00;100507.00;5107175;27;20024;-76
2023/04/06 06:51:32;;;;;;;40.53;19.97;;;;;;;4.53;100.00;100630.56;5081425;28;20023;-76
2023/04/06 06:54:00;;;;;;;38.58;19.88;;;;;;;4.54;100.00;100644.63;5103368;28;20403;-76
2023/04/06 06:56:26;;;;;;;37.47;18.60;;;;;;;4.79;100.00;100599.31;5087583;28;20046;-77
2023/04/06 06:58:52;;;;;;;33.97;18.15;;;;;;;5.01;100.00;100578.97;5103821;28;20032;-76
2023/04/06 07:01:18;;;;;;;32.53;16.00;;;;;;;4.97;100.00;100495.56;5105207;28;20023;-77
2023/04/06 07:03:43;;;;;;;36.20;16.73;;;;;;;6.29;100.00;100633.13;5091660;28;20031;-77
2023/04/06 07:06:09;;;;;;;31.63;15.97;;;;;;;6.73;100.00;100454.97;5110086;28;20487;-77
2023/04/06 07:08:34;;;;;;;27.17;13.80;;;;;;;6.61;100.00;100159.06;5108021;28;20273;-76
2023/04/06 07:11:02;;;;;;;24.27;14.30;;;;;;;5.98;100.00;99932.00;5108170;28;20032;-78
2023/04/06 07:13:28;;;;;;;26.17;14.88;;;;;;;6.07;100.00;100018.53;5091802;28;20103;-77
2023/04/06 07:15:56;;;;;;;26.33;15.07;;;;;;;6.23;100.00;100071.69;5108380;28;20571;-76
2023/04/06 07:18:22;;;;;;;25.60;14.10;;;;;;;6.29;100.00;100047.22;5087814;28;20134;-78
2023/04/06 07:20:48;;;;;;;28.67;15.10;;;;;;;7.08;100.00;100116.31;5107924;28;20488;-77
2023/04/06 07:23:15;;;;;;;27.30;15.05;;;;;;;6.03;100.00;99855.50;5108427;28;20028;-77
2023/04/06 07:25:40;;;;;;;26.27;14.57;;;;;;;5.25;100.00;99676.19;5108321;28;20028;-78
2023/04/06 07:28:08;;;;;;;25.90;15.30;;;;;;;4.55;100.00;99615.28;5091653;28;20032;-76
2023/04/06 07:30:33;;;;;;;26.67;14.73;;;;;;;4.82;100.00;99927.25;5091452;28;20027;-76
2023/04/06 07:32:59;;;;;;;26.77;14.40;;;;;;;5.27;100.00;100145.31;5108057;28;20465;-78
2023/04/06 07:35:26;;;;;;;28.67;14.63;;;;;;;5.63;100.00;100177.25;5107964;28;20711;-78
2023/04/06 07:37:54;;;;;;;29.00;14.18;;;;;;;5.59;100.00;99978.09;5089989;28;20037;-77
2023/04/06 07:40:20;;;;;;;28.33;17.15;;;;;;;5.20;100.00;99891.00;5085588;28;20046;-77
2023/04/06 07:42:46;;;;;;;23.13;14.00;;;;;;;5.06;100.00;100023.78;5106557;28;20761;-77
2023/04/06 07:45:11;;;;;;;25.92;14.20;;;;;;;4.96;100.00;99994.69;5106895;28;20483;-80
2023/04/06 07:47:37;;;;;;;29.30;15.13;;;;;;;6.06;100.00;100126.34;5107290;28;20722;-77
2023/04/06 07:50:03;;;;;;;19.37;12.07;;;;;;;5.77;100.00;99881.94;5090226;28;20027;-76
2023/04/06 07:52:29;;;;;;;20.95;11.63;;;;;;;5.86;100.00;99663.81;5104776;28;20019;-76
2023/04/06 07:54:54;;;;;;;23.55;12.15;;;;;;;6.38;100.00;99750.34;5088934;28;20035;-76
2023/04/06 07:57:20;;;;;;;23.20;12.40;;;;;;;6.97;100.00;99769.75;5107713;28;20029;-78
2023/04/06 07:59:45;;;;;;;17.73;10.83;;;;;;;6.93;100.00;99524.28;5090455;28;20035;-77
2023/04/06 08:02:10;;;;;;;20.17;11.40;;;;;;;7.24;100.00;99510.31;5109540;28;20027;-77
2023/04/06 08:04:36;;;;;;;16.30;10.67;;;;;;;7.04;100.00;99537.19;5109424;27;20120;-78
2023/04/06 08:07:02;;;;;;;15.38;9.32;;;;;;;7.18;100.00;99255.13;5107968;28;20084;-79
2023/04/06 08:09:27;;;;;;;15.25;9.73;;;;;;;7.96;99.85;99377.22;5090241;28;20468;-76
2023/04/06 08:11:53;;;;;;;18.17;9.48;;;;;;;8.15;99.54;99445.84;5107565;28;20038;-78
2023/04/06 08:14:18;;;;;;;17.23;9.27;;;;;;;7.56;96.31;99076.41;5107927;28;20042;-78
2023/04/06 08:16:44;;;;;;;16.53;8.60;;;;;;;7.94;95.05;99121.47;5089379;28;20035;-77
2023/04/06 08:19:09;;;;;;;16.88;10.63;;;;;;;7.42;94.41;98987.78;5106459;28;20039;-78
2023/04/06 08:21:39;;;;;;;16.80;9.20;;;;;;;7.29;93.21;98910.66;5089395;28;20039;-78
2023/04/06 08:24:07;;;;;;;16.15;9.63;;;;;;;7.85;92.71;99082.72;5089147;28;20028;-78
2023/04/06 08:26:32;;;;;;;16.50;9.73;;;;;;;8.32;91.69;99154.03;5090819;28;20039;-78
2023/04/06 08:28:58;;;;;;;17.47;9.67;;;;;;;7.86;90.42;98935.56;5090279;28;20015;-77
2023/04/06 08:31:23;;;;;;;15.10;9.70;;;;;;;7.76;88.84;98792.44;5090937;28;20032;-77
2023/04/06 08:33:49;;;;;;;18.63;10.80;;;;;;;7.65;90.15;99024.03;5107507;28;20107;-78
2023/04/06 08:36:16;;;;;;;16.80;10.35;;;;;;;7.64;88.93;98918.81;5090477;28;20509;-77
2023/04/06 08:38:42;;;;;;;17.48;9.20;;;;;;;8.44;89.27;99197.78;5107862;28;20044;-77
2023/04/06 08:41:12;;;;;;;14.85;9.50;;;;;;;9.18;87.57;99188.72;5105496;28;20027;-79
2023/04/06 08:43:43;;;;;;;16.83;10.30;;;;;;;8.30;83.98;98596.91;5106492;28;20044;-78
2023/04/06 08:46:11;;;;;;;17.08;10.48;;;;;;;8.60;83.83;98804.88;5101546;28;20032;-78
2023/04/06 08:48:38;;;;;;;17.35;9.63;;;;;;;9.92;83.56;99094.91;5087956;28;20962;-76
2023/04/06 08:51:04;;;;;;;19.98;9.23;;;;;;;9.28;78.33;98312.31;5109796;28;20027;-78
2023/04/06 08:53:30;;;;;;;13.68;9.00;;;;;;;9.77;78.60;98683.03;5109736;28;20023;-79
2023/04/06 08:55:58;;;;;;;16.47;9.23;;;;;;;10.57;78.15;98860.53;5108824;28;20043;-79
2023/04/06 08:58:24;;;;;;;15.68;8.98;;;;;;;10.18;74.36;98289.91;5093676;28;20587;-79
2023/04/06 09:00:50;;;;;;;13.13;8.65;;;;;;;10.14;73.19;98217.56;5106563;28;20031;-77
2023/04/06 09:03:17;;;;;;;15.40;8.95;;;;;;;10.47;70.62;98048.38;5092652;28;20366;-78
2023/04/06 09:05:45;;;;;;;15.65;9.02;;;;;;;10.04;70.98;98129.28;5105109;28;20020;-78
2023/04/06 09:08:10;;;;;;;12.40;7.40;;;;;;;10.69;72.00;98528.97;5091797;28;20043;-80
2023/04/06 09:10:40;;;;;;;14.00;7.97;;;;;;;9.86;67.77;97786.34;5088165;28;20552;-79
2023/04/06 09:13:06;;;;;;;17.50;8.18;;;;;;;10.18;66.18;97749.50;5089366;28;20024;-80
2023/04/06 09:15:32;;;;;;;12.70;7.57;;;;;;;11.02;65.40;97970.69;5093126;28;20392;-77
2023/04/06 09:17:58;;;;;;;12.90;7.25;;;;;;;11.43;63.66;97891.44;5087313;28;20031;-79
2023/04/06 09:20:28;;;;;;;12.40;8.20;;;;;;;9.33;63.68;97242.19;5086883;28;20074;-80
2023/04/06 09:22:54;;;;;;;14.50;7.43;;;;;;;10.66;65.41;98153.16;5087599;28;20039;-79
2023/04/06 09:25:20;;;;;;;;;;;;;;;11.26;63.74;98094.34;5091611;28;20055;-79
2023/04/06 09:27:46;;;;;;;13.57;8.65;;;;;;;10.60;63.03;97722.66;5095958;28;19915;-77
2023/04/06 09:30:13;;;;;;;10.43;7.47;;;;;;;10.19;62.58;97721.00;5105533;27;20023;-76
2023/04/06 09:32:51;;;;;;;11.90;7.53;;;;;;;10.90;62.85;98025.94;5090527;27;20425;-80
2023/04/06 09:35:17;;;;;;;12.18;8.27;;;;;;;10.19;61.53;97489.88;5103395;28;20036;-74
2023/04/06 09:37:43;;;;;;;11.05;7.32;;;;;;;11.12;62.17;98108.94;5088343;28;20138;-78
2023/04/06 09:40:09;;;;;;;;;;;;;;;9.96;59.62;97370.84;5091155;28;20066;-78
2023/04/06 09:42:35;;;;;;;11.00;6.28;;;;;;;11.08;58.44;97611.19;5095373;27;20357;-78
2023/04/06 09:45:02;;;;;;;9.90;6.95;;;;;;;10.99;58.68;97622.25;5105942;28;20009;-79
2023/04/06 09:47:29;;;;;;;12.38;6.93;;;;;;;11.17;58.71;97712.00;5087064;28;20047;-78
2023/04/06 09:49:58;;;;;;;12.15;6.90;;;;;;;10.50;57.99;97360.53;5086415;28;20035;-78
2023/04/06 09:52:31;;;;;;;11.18;8.18;;;;;;;10.90;60.05;98001.91;5107158;28;20065;-77
2023/04/06 09:55:01;;;;;;;14.18;7.18;;;;;;;10.76;59.22;97898.03;5103781;28;20443;-76
2023/04/06 09:57:30;;;;;;;10.55;7.18;;;;;;;11.25;60.41;98295.69;5090628;28;20178;-76
2023/04/06 09:59:56;;;;;;;12.98;7.18;;;;;;;11.15;58.72;97878.84;5103632;28;20100;-76
2023/04/06 10:02:34;;;;;;;8.47;6.33;;;;;;;12.16;58.65;98331.13;5108244;28;20031;-76
2023/04/06 10:05:09;;;;;;;11.25;6.65;;;;;;;12.24;56.55;97897.47;5112721;28;20028;-78
2023/04/06 10:07:36;;;;;;;13.45;8.18;;;;;;;12.55;56.27;97956.81;5090654;28;20408;-79
2023/04/06 10:10:03;;;;;;;11.73;6.93;;;;;;;12.18;54.69;97598.88;5091439;28;20023;-76
2023/04/06 10:12:28;;;;;;;10.43;7.32;;;;;;;12.29;54.94;97684.56;5088563;28;20020;-78
2023/04/06 10:14:56;;;;;;;6.32;4.00;;;;;;;11.98;49.67;96709.22;5108389;28;20046;-79
2023/04/06 10:17:24;;;;;;;7.35;3.85;;;;;;;11.13;47.50;96162.56;5088922;28;20700;-76
2023/04/06 10:19:55;;;;;;;8.77;3.80;;;;;;;11.65;46.80;96296.50;5108590;28;20447;-79
2023/04/06 10:22:36;;;;;;;6.75;4.22;;;;;;;11.77;46.08;96334.34;5109371;28;20048;-77
2023/04/06 10:25:01;;;;;;;10.13;4.65;;;;;;;11.18;47.32;96361.91;5109325;28;20032;-75
2023/04/06 10:27:29;;;;;;;5.90;4.25;;;;;;;12.02;47.28;96762.97;5109384;28;20061;-80
2023/04/06 10:30:01;;;;;;;5.97;4.35;;;;;;;12.25;47.05;96823.91;5086052;28;20127;-78
2023/04/06 10:32:37;;;;;;;8.90;5.10;;;;;;;11.35;45.97;96268.13;5090051;28;20035;-76
2023/04/06 10:35:15;;;;;;;8.43;3.80;;;;;;;11.62;45.75;96393.22;5103585;28;20035;-78
2023/04/06 10:37:49;;;;;;;5.32;3.53;;;;;;;12.59;45.62;96890.19;5089545;28;20040;-78
2023/04/06 10:40:23;;;;;;;4.10;3.15;;;;;;;12.24;44.41;96423.06;5105459;28;20368;-79
2023/04/06 10:42:48;;;;;;;5.47;3.65;;;;;;;10.88;44.60;96053.34;5090379;28;20045;-78
2023/04/06 10:45:21;;;;;;;5.00;3.30;;;;;;;11.51;44.75;96405.03;5093873;28;20016;-79
2023/04/06 10:47:47;;;;;;;4.95;2.78;;;;;;;11.45;44.49;96422.13;5106577;28;20080;-78
2023/04/06 10:50:15;;;;;;;5.30;2.87;;;;;;;11.32;43.52;96175.22;5107988;28;20020;-80
2023/04/06 10:52:41;;;;;;;4.30;2.80;;;;;;;10.77;44.44;96196.66;5107435;28;20919;-75
2023/04/06 10:55:10;;;;;;;6.45;2.70;;;;;;;11.70;45.15;96872.75;5099374;28;20239;-76
2023/04/06 10:57:36;;;;;;;5.85;3.05;;;;;;;11.53;44.13;96601.31;5094214;28;20127;-78
2023/04/06 11:00:04;;;;;;;5.05;3.33;;;;;;;10.49;43.79;95972.28;5090260;28;20287;-77
2023/04/06 11:02:31;;;;;;;4.63;2.83;;;;;;;11.67;43.67;96622.16;5093344;28;20015;-79
2023/04/06 11:04:57;;;;;;;6.80;3.28;;;;;;;13.04;42.47;97027.75;5089476;28;20094;-75
2023/04/06 11:07:27;;;;;;;6.75;3.13;;;;;;;11.95;42.40;96365.00;5110829;28;20027;-78
2023/04/06 11:09:53;;;;;;;6.32;2.95;;;;;;;12.31;43.55;96912.94;5089022;28;20136;-79
2023/04/06 11:12:36;;;;;;;5.55;3.42;;;;;;;11.09;42.37;95977.34;5093599;28;20047;-78
2023/04/06 11:15:06;;;;;;;4.13;2.58;;;;;;;11.04;42.02;95936.59;5091557;28;20054;-79
2023/04/06 11:17:35;;;;;;;3.33;2.67;;;;;;;11.46;41.71;96128.13;5093656;28;20020;-77